Time;durP1;ratioP1;P1;durP2;ratioP2;P2;SDS_P1;SDS_P2;PMS_P1;PMS_P2;Temp;Humidity;BMP_temperature;BMP_pressure;BME280_temperature;BME280_humidity;BME280_pressure;Samples;Min_cycle;Max_cycle;Signal;HPM_P1;HPM_P2
2024/04/08 00:02:09;;;;;;;2.50;0.85;;;15.70;96.70;;;;;;5045630;28;20051;-71
2024/04/08 00:04:38;;;;;;;1.85;0.70;;;15.70;96.70;;;;;;5036112;28;20415;-71
2024/04/08 00:07:07;;;;;;;2.25;0.63;;;15.70;96.70;;;;;;5032650;28;20144;-71
2024/04/08 00:09:37;;;;;;;2.63;0.63;;;15.70;96.70;;;;;;5043901;28;20071;-71
2024/04/08 00:12:06;;;;;;;1.55;0.63;;;15.80;96.70;;;;;;5067371;28;20045;-70
2024/04/08 00:14:35;;;;;;;1.45;0.50;;;15.80;96.70;;;;;;5040047;28;20048;-70
2024/04/08 00:17:03;;;;;;;1.45;0.60;;;15.70;96.70;;;;;;5051674;28;20044;-71
2024/04/08 00:19:30;;;;;;;3.15;0.80;;;15.60;96.70;;;;;;5032889;28;20079;-71
2024/04/08 00:21:59;;;;;;;1.08;0.60;;;15.60;96.70;;;;;;5040674;28;20060;-71
2024/04/08 00:24:27;;;;;;;1.63;0.60;;;15.60;96.70;;;;;;5046414;28;20048;-71
2024/04/08 00:26:58;;;;;;;2.35;0.77;;;15.60;96.70;;;;;;5049060;28;20051;-71
2024/04/08 00:29:27;;;;;;;0.95;0.40;;;15.50;96.70;;;;;;5050517;28;20049;-71
2024/04/08 00:31:54;;;;;;;2.40;0.50;;;15.50;96.70;;;;;;5055804;28;20068;-71
2024/04/08 00:34:23;;;;;;;2.80;0.77;;;15.50;96.70;;;;;;5043214;28;20044;-70
2024/04/08 00:36:50;;;;;;;1.73;0.70;;;15.50;96.70;;;;;;5034561;28;20212;-71
2024/04/08 00:39:20;;;;;;;1.95;0.50;;;15.50;96.70;;;;;;5048755;28;20056;-71
2024/04/08 00:41:49;;;;;;;1.88;0.82;;;15.50;96.70;;;;;;5033327;28;20159;-71
2024/04/08 00:44:17;;;;;;;2.22;1.20;;;15.50;96.70;;;;;;5037467;28;20056;-71
2024/04/08 00:46:46;;;;;;;3.40;1.00;;;15.40;96.70;;;;;;5047919;28;20056;-70
2024/04/08 00:49:14;;;;;;;1.83;0.70;;;15.30;96.70;;;;;;5049826;28;20041;-71
2024/04/08 00:51:44;;;;;;;3.95;1.17;;;15.40;96.70;;;;;;5056711;28;20472;-71
2024/04/08 00:54:12;;;;;;;3.50;0.80;;;15.30;96.70;;;;;;5040382;28;20044;-70
2024/04/08 00:56:42;;;;;;;2.13;1.25;;;15.40;96.70;;;;;;5066410;28;20094;-72
2024/04/08 00:59:13;;;;;;;2.47;1.10;;;15.30;96.70;;;;;;5065616;28;20040;-71
2024/04/08 01:01:42;;;;;;;3.33;1.00;;;15.30;96.70;;;;;;5033915;28;20041;-71
2024/04/08 01:04:10;;;;;;;2.55;1.17;;;15.20;96.70;;;;;;5045434;28;20060;-71
2024/04/08 01:06:42;;;;;;;4.07;1.33;;;15.20;96.70;;;;;;5038818;28;20067;-71
2024/04/08 01:09:11;;;;;;;2.25;1.38;;;15.10;96.70;;;;;;5040993;28;20883;-71
2024/04/08 01:11:40;;;;;;;2.20;1.20;;;15.20;96.70;;;;;;5026363;28;20051;-71
2024/04/08 01:14:09;;;;;;;3.08;1.40;;;15.10;96.70;;;;;;5052999;28;20057;-71
2024/04/08 01:16:37;;;;;;;1.70;1.08;;;15.10;96.70;;;;;;5032581;28;20052;-71
2024/04/08 01:19:07;;;;;;;2.45;1.20;;;15.10;96.70;;;;;;5037048;28;21141;-71
2024/04/08 01:21:34;;;;;;;3.40;1.23;;;15.10;96.70;;;;;;5038670;28;20047;-71
2024/04/08 01:24:06;;;;;;;3.08;1.00;;;15.10;96.70;;;;;;5039111;28;20048;-71
2024/04/08 01:26:34;;;;;;;1.90;0.80;;;15.00;96.70;;;;;;5034149;28;20079;-71
2024/04/08 01:29:04;;;;;;;1.88;1.05;;;14.90;96.70;;;;;;5052753;28;20072;-71
2024/04/08 01:31:33;;;;;;;1.60;0.75;;;14.90;96.70;;;;;;5047634;28;20063;-71
2024/04/08 01:34:03;;;;;;;3.15;0.95;;;14.80;96.70;;;;;;5072841;28;20051;-70
2024/04/08 01:36:30;;;;;;;2.15;1.20;;;14.80;96.70;;;;;;5073861;28;20108;-71
2024/04/08 01:38:57;;;;;;;3.30;1.20;;;14.80;96.70;;;;;;5057855;28;20066;-71
2024/04/08 01:41:28;;;;;;;1.92;0.90;;;14.80;96.70;;;;;;5057231;28;20058;-71
2024/04/08 01:43:56;;;;;;;2.50;0.80;;;14.70;96.70;;;;;;5074012;28;20044;-71
2024/04/08 01:46:23;;;;;;;4.05;1.25;;;14.80;96.70;;;;;;5072747;28;20052;-71
2024/04/08 01:48:51;;;;;;;3.50;0.98;;;14.80;96.70;;;;;;5054739;28;20054;-71
2024/04/08 01:51:19;;;;;;;2.50;1.38;;;14.70;96.70;;;;;;5057654;28;20288;-70
2024/04/08 01:53:46;;;;;;;2.30;1.00;;;14.70;96.70;;;;;;5057640;28;20067;-71
2024/04/08 01:56:14;;;;;;;2.75;1.00;;;14.70;96.70;;;;;;5072949;28;20051;-71
2024/04/08 01:58:43;;;;;;;1.60;0.80;;;14.70;96.70;;;;;;5055431;28;20051;-70
2024/04/08 02:01:10;;;;;;;1.90;0.98;;;14.70;96.70;;;;;;5052955;28;20044;-70
2024/04/08 02:03:41;;;;;;;2.22;1.00;;;14.70;96.70;;;;;;5057146;28;20531;-71
2024/04/08 02:06:08;;;;;;;2.97;0.70;;;14.70;96.70;;;;;;5055022;28;20068;-71
2024/04/08 02:08:36;;;;;;;4.93;1.00;;;14.60;96.70;;;;;;5059639;28;20043;-71
2024/04/08 02:11:05;;;;;;;1.73;0.98;;;14.60;96.70;;;;;;5072912;28;20134;-71
2024/04/08 02:13:33;;;;;;;3.28;1.05;;;14.60;96.70;;;;;;5073459;28;20676;-71
2024/04/08 02:16:07;;;;;;;4.50;1.25;;;14.60;96.70;;;;;;5072434;28;20158;-70
2024/04/08 02:18:36;;;;;;;3.60;0.80;;;14.50;96.70;;;;;;5056801;28;20067;-71
2024/04/08 02:21:05;;;;;;;2.47;0.90;;;14.50;96.70;;;;;;5072351;28;20055;-70
2024/04/08 02:23:34;;;;;;;1.50;1.00;;;14.60;96.70;;;;;;5055930;28;20047;-71
2024/04/08 02:26:03;;;;;;;2.28;0.98;;;14.50;96.70;;;;;;5057005;28;20496;-71
2024/04/08 02:28:32;;;;;;;2.00;0.93;;;14.50;96.70;;;;;;5071589;28;20150;-71
2024/04/08 02:31:03;;;;;;;2.65;1.30;;;14.50;96.70;;;;;;5056035;28;20056;-70
2024/04/08 02:33:33;;;;;;;2.25;1.05;;;14.50;96.70;;;;;;5056191;28;20516;-72
2024/04/08 02:36:04;;;;;;;3.95;1.30;;;14.50;96.70;;;;;;5069651;28;20496;-71
2024/04/08 02:38:33;;;;;;;1.58;0.80;;;14.50;96.70;;;;;;5056282;28;20043;-71
2024/04/08 02:41:01;;;;;;;3.50;1.20;;;14.50;96.70;;;;;;5053397;28;20139;-72
2024/04/08 02:43:28;;;;;;;3.15;1.30;;;14.50;96.70;;;;;;5055912;28;20128;-71
2024/04/08 02:46:00;;;;;;;5.88;1.35;;;14.50;96.70;;;;;;5071432;28;20054;-71
2024/04/08 02:48:30;;;;;;;4.28;1.40;;;14.50;96.70;;;;;;5072026;28;20052;-71
2024/04/08 02:50:58;;;;;;;3.03;1.30;;;14.50;96.70;;;;;;5056032;28;20051;-71
2024/04/08 02:53:27;;;;;;;1.80;1.10;;;14.40;96.70;;;;;;5055500;28;20048;-71
2024/04/08 02:56:00;;;;;;;2.95;1.42;;;14.50;96.70;;;;;;5068165;28;20054;-71
2024/04/08 02:58:29;;;;;;;2.65;1.05;;;14.40;96.70;;;;;;5056348;28;20083;-71
2024/04/08 03:00:56;;;;;;;2.58;1.25;;;14.40;96.70;;;;;;5071276;28;20519;-71
2024/04/08 03:03:26;;;;;;;2.08;0.95;;;14.40;96.70;;;;;;5055114;28;20055;-71
2024/04/08 03:05:56;;;;;;;3.10;1.00;;;14.40;96.70;;;;;;5072478;28;20047;-71
2024/04/08 03:08:24;;;;;;;2.10;1.10;;;14.40;96.70;;;;;;5055377;28;20099;-71
2024/04/08 03:10:58;;;;;;;1.98;0.93;;;14.40;96.70;;;;;;5071690;28;20048;-69
2024/04/08 03:13:26;;;;;;;2.50;0.98;;;14.30;96.70;;;;;;5075765;28;20039;-69
2024/04/08 03:15:54;;;;;;;2.58;1.05;;;14.20;96.70;;;;;;5071943;28;20048;-70
2024/04/08 03:18:21;;;;;;;1.30;0.63;;;14.20;96.70;;;;;;5071288;28;20044;-70
2024/04/08 03:20:59;;;;;;;2.15;0.70;;;14.10;96.70;;;;;;5052543;28;20070;-71
2024/04/08 03:23:27;;;;;;;1.98;0.77;;;14.10;96.70;;;;;;5068566;28;20044;-70
2024/04/08 03:25:58;;;;;;;3.95;0.88;;;14.00;96.70;;;;;;5054448;28;20051;-71
2024/04/08 03:28:27;;;;;;;2.45;1.20;;;14.00;96.70;;;;;;5072351;28;20684;-71
2024/04/08 03:30:58;;;;;;;2.88;0.82;;;14.10;96.70;;;;;;5055398;27;20113;-71
2024/04/08 03:33:27;;;;;;;2.78;0.80;;;14.00;96.70;;;;;;5081285;27;20117;-70
2024/04/08 03:35:57;;;;;;;1.60;0.90;;;13.90;96.70;;;;;;5055875;28;20134;-71
2024/04/08 03:38:27;;;;;;;4.00;1.02;;;13.90;96.70;;;;;;5070947;28;20050;-71
2024/04/08 03:41:01;;;;;;;3.22;1.02;;;13.90;96.70;;;;;;5056219;28;20055;-70
2024/04/08 03:43:30;;;;;;;2.50;1.13;;;13.90;96.70;;;;;;5054678;28;20195;-71
2024/04/08 03:45:59;;;;;;;2.10;1.02;;;13.90;96.70;;;;;;5053907;28;20067;-69
2024/04/08 03:48:29;;;;;;;2.03;1.02;;;13.90;96.70;;;;;;5069653;28;20047;-71
2024/04/08 03:51:09;;;;;;;2.10;0.93;;;13.90;96.70;;;;;;5054970;28;20052;-71
2024/04/08 03:53:38;;;;;;;3.30;0.80;;;13.90;96.70;;;;;;5055986;28;20055;-71
2024/04/08 03:56:09;;;;;;;2.42;1.27;;;13.90;96.70;;;;;;5051921;28;20158;-71
2024/04/08 03:58:40;;;;;;;2.60;1.10;;;13.90;96.70;;;;;;5055407;28;20060;-70
2024/04/08 04:01:09;;;;;;;3.65;0.65;;;13.80;96.70;;;;;;5050134;28;20195;-71
2024/04/08 04:03:37;;;;;;;3.83;1.20;;;13.70;96.70;;;;;;5054838;28;20055;-71
2024/04/08 04:06:05;;;;;;;4.10;1.00;;;13.60;96.70;;;;;;5072081;28;20390;-71
2024/04/08 04:08:35;;;;;;;4.78;1.00;;;13.60;96.70;;;;;;5070333;28;20078;-71
2024/04/08 04:11:03;;;;;;;2.63;1.08;;;13.60;96.70;;;;;;5087778;28;20142;-71
2024/04/08 04:13:31;;;;;;;2.65;1.33;;;13.50;96.70;;;;;;5064789;28;20127;-71
2024/04/08 04:16:04;;;;;;;3.55;2.40;;;13.50;96.70;;;;;;5063624;28;20067;-71
2024/04/08 04:18:32;;;;;;;3.40;1.20;;;13.50;96.70;;;;;;5071763;28;20126;-71
2024/04/08 04:21:01;;;;;;;3.92;1.10;;;13.50;96.70;;;;;;5070967;28;20062;-71
2024/04/08 04:23:31;;;;;;;3.47;1.10;;;13.50;96.70;;;;;;5071041;28;20047;-71
2024/04/08 04:26:01;;;;;;;3.38;1.17;;;13.60;96.70;;;;;;5055007;28;20104;-71
2024/04/08 04:28:30;;;;;;;3.30;1.20;;;13.50;96.70;;;;;;5054426;28;20101;-71
2024/04/08 04:30:59;;;;;;;2.50;1.45;;;13.50;96.70;;;;;;5071302;28;20117;-71
2024/04/08 04:33:28;;;;;;;1.83;0.80;;;13.50;96.70;;;;;;5054490;28;20051;-71
2024/04/08 04:35:58;;;;;;;2.63;1.10;;;13.50;96.70;;;;;;5071564;28;20051;-71
2024/04/08 04:38:26;;;;;;;3.45;0.90;;;13.50;96.70;;;;;;5069321;28;20052;-71
2024/04/08 04:41:02;;;;;;;1.55;0.82;;;13.50;96.70;;;;;;5054780;28;20039;-71
2024/04/08 04:43:30;;;;;;;1.80;1.13;;;13.50;96.70;;;;;;5066997;28;20047;-71
2024/04/08 04:45:58;;;;;;;2.40;1.30;;;13.50;96.70;;;;;;5054349;28;20048;-71
2024/04/08 04:48:26;;;;;;;2.10;1.10;;;13.50;96.70;;;;;;5072075;28;20047;-70
2024/04/08 04:50:55;;;;;;;3.10;1.20;;;13.50;96.70;;;;;;5055735;28;20052;-71
2024/04/08 04:53:23;;;;;;;2.63;1.40;;;13.50;96.70;;;;;;5054643;28;20578;-71
2024/04/08 04:55:55;;;;;;;2.50;1.20;;;13.50;96.70;;;;;;5071253;28;20056;-71
2024/04/08 04:58:24;;;;;;;3.15;1.20;;;13.50;96.70;;;;;;5054721;28;20044;-72
2024/04/08 05:00:53;;;;;;;4.18;1.40;;;13.50;96.70;;;;;;5071222;28;20074;-71
2024/04/08 05:03:23;;;;;;;2.97;1.30;;;13.50;96.70;;;;;;5070200;28;20460;-71
2024/04/08 05:05:53;;;;;;;2.17;1.10;;;13.50;96.70;;;;;;5054270;28;20115;-70
2024/04/08 05:08:21;;;;;;;4.10;1.33;;;13.50;96.70;;;;;;5055872;28;20069;-71
2024/04/08 05:10:49;;;;;;;2.72;1.20;;;13.40;96.70;;;;;;5056667;28;20122;-69
2024/04/08 05:13:18;;;;;;;3.35;1.20;;;13.40;96.70;;;;;;5061167;28;20047;-69
2024/04/08 05:15:57;;;;;;;3.25;1.00;;;13.40;96.70;;;;;;5057385;28;20081;-69
2024/04/08 05:18:25;;;;;;;2.67;1.17;;;13.40;96.70;;;;;;5090648;28;20035;-69
2024/04/08 05:20:54;;;;;;;2.45;1.00;;;13.40;96.70;;;;;;5056999;28;20832;-68
2024/04/08 05:23:22;;;;;;;4.13;1.20;;;13.40;96.70;;;;;;5074080;28;20471;-68
2024/04/08 05:25:50;;;;;;;2.53;0.98;;;13.40;96.70;;;;;;5057478;28;20100;-68
2024/04/08 05:28:22;;;;;;;3.25;1.20;;;13.40;96.70;;;;;;5040554;28;20484;-69
2024/04/08 05:30:50;;;;;;;3.80;1.13;;;13.50;96.70;;;;;;5048510;28;20131;-69
2024/04/08 05:33:20;;;;;;;3.83;1.33;;;13.50;96.70;;;;;;5040147;28;20058;-69
2024/04/08 05:37:22;;;;;;;3.75;1.42;;;13.50;96.70;;;;;;5571129;25;20450;-69
2024/04/08 05:39:54;;;;;;;5.70;1.27;;;13.60;96.70;;;;;;5536013;25;20000;-71
2024/04/08 05:42:22;;;;;;;4.35;1.35;;;13.80;96.70;;;;;;5504232;25;20083;-70
2024/04/08 05:44:51;;;;;;;4.78;1.50;;;13.80;96.70;;;;;;5491923;25;20001;-71
2024/04/08 05:47:23;;;;;;;3.35;1.30;;;13.80;96.70;;;;;;5533532;25;19997;-71
2024/04/08 05:49:52;;;;;;;4.32;1.20;;;13.80;96.70;;;;;;5509311;25;20072;-71
2024/04/08 05:52:25;;;;;;;2.63;1.30;;;13.80;96.70;;;;;;5509070;25;20045;-71
2024/04/08 05:54:53;;;;;;;4.25;1.38;;;13.90;96.70;;;;;;5500384;25;20213;-71
2024/04/08 05:57:25;;;;;;;3.95;1.52;;;13.90;96.70;;;;;;5511735;25;19997;-70
2024/04/08 05:59:53;;;;;;;4.05;1.23;;;14.10;96.70;;;;;;5492945;25;20011;-71
2024/04/08 06:02:22;;;;;;;3.70;1.60;;;14.10;96.70;;;;;;5506380;25;20028;-70
2024/04/08 06:04:54;;;;;;;4.43;1.30;;;14.10;96.70;;;;;;5502505;25;20119;-71
2024/04/08 06:07:26;;;;;;;4.95;1.58;;;14.20;96.70;;;;;;5502788;25;20001;-71
2024/04/08 06:09:55;;;;;;;5.82;1.88;;;14.30;96.70;;;;;;5510406;25;20077;-70
2024/04/08 06:12:24;;;;;;;3.92;2.03;;;14.40;96.70;;;;;;5505896;25;20000;-70
2024/04/08 06:14:54;;;;;;;4.68;2.13;;;14.40;96.70;;;;;;5508223;25;19996;-71
2024/04/08 06:17:23;;;;;;;3.28;1.67;;;14.40;96.70;;;;;;5501747;25;20001;-70
2024/04/08 06:19:52;;;;;;;4.25;1.60;;;14.50;96.70;;;;;;5529333;25;20004;-70
2024/04/08 06:22:25;;;;;;;4.13;1.80;;;14.60;96.70;;;;;;5507831;25;20073;-71
2024/04/08 06:24:54;;;;;;;4.65;1.90;;;14.70;96.70;;;;;;5502654;25;20001;-70
2024/04/08 06:27:23;;;;;;;4.60;2.10;;;14.80;96.70;;;;;;5508334;25;20490;-71
2024/04/08 06:29:52;;;;;;;3.42;1.73;;;14.80;96.70;;;;;;5501757;25;20013;-71
2024/04/08 06:32:21;;;;;;;4.38;2.30;;;14.90;96.70;;;;;;5509042;25;20008;-71
2024/04/08 06:34:51;;;;;;;3.80;1.80;;;15.00;96.70;;;;;;5525815;25;20001;-70
2024/04/08 06:37:21;;;;;;;5.78;2.72;;;15.20;96.70;;;;;;5533134;25;20019;-70
2024/04/08 06:39:52;;;;;;;4.97;1.83;;;15.30;96.70;;;;;;5517187;25;20074;-69
2024/04/08 06:42:22;;;;;;;5.32;2.13;;;15.30;96.70;;;;;;5501067;25;20584;-69
2024/04/08 06:44:53;;;;;;;4.53;1.77;;;15.30;96.70;;;;;;5525980;25;20002;-70
2024/04/08 06:47:24;;;;;;;5.93;1.80;;;15.30;96.70;;;;;;5490438;26;19998;-71
2024/04/08 06:49:53;;;;;;;7.20;2.10;;;15.40;96.70;;;;;;5512067;25;20064;-71
2024/04/08 06:52:21;;;;;;;3.78;1.75;;;15.50;96.70;;;;;;5487050;25;20040;-70
2024/04/08 06:54:52;;;;;;;4.43;2.08;;;15.70;96.70;;;;;;5484732;26;20054;-71
2024/04/08 06:57:21;;;;;;;4.18;2.33;;;15.80;96.70;;;;;;5472866;26;20005;-70
2024/04/08 06:59:50;;;;;;;7.80;2.40;;;15.90;96.70;;;;;;5471610;26;20010;-71
2024/04/08 07:02:19;;;;;;;5.50;2.28;;;16.00;96.70;;;;;;5485006;25;20041;-71
2024/04/08 07:04:48;;;;;;;3.53;1.98;;;16.10;96.70;;;;;;5508876;25;20017;-71
2024/04/08 07:07:17;;;;;;;4.22;2.30;;;16.10;96.70;;;;;;5486870;26;20025;-70
2024/04/08 07:09:46;;;;;;;7.88;2.65;;;16.10;96.70;;;;;;5516938;26;20011;-69
2024/04/08 07:12:17;;;;;;;6.93;2.30;;;16.30;96.70;;;;;;5484809;26;20829;-70
2024/04/08 07:14:49;;;;;;;9.20;2.50;;;16.30;96.70;;;;;;5470011;25;19998;-71
2024/04/08 07:17:18;;;;;;;4.63;2.63;;;16.50;96.70;;;;;;5486158;25;20455;-71
2024/04/08 07:19:46;;;;;;;5.63;3.03;;;16.50;96.70;;;;;;5500244;26;20098;-71
2024/04/08 07:22:15;;;;;;;6.30;3.40;;;16.60;96.70;;;;;;5484732;26;19998;-69
2024/04/08 07:24:44;;;;;;;8.05;3.55;;;16.70;96.70;;;;;;5470877;26;20443;-71
2024/04/08 07:27:16;;;;;;;5.43;3.03;;;16.80;96.70;;;;;;5507389;25;20007;-71
2024/04/08 07:29:44;;;;;;;6.20;3.70;;;16.90;96.70;;;;;;5497400;25;20025;-70
2024/04/08 07:32:14;;;;;;;4.75;2.95;;;17.00;96.70;;;;;;5505138;25;20002;-71
2024/04/08 07:34:42;;;;;;;5.10;3.40;;;17.10;96.70;;;;;;5472286;26;19998;-70
2024/04/08 07:37:11;;;;;;;9.07;3.05;;;17.10;96.70;;;;;;5480301;26;20006;-70
2024/04/08 07:39:40;;;;;;;6.32;2.45;;;17.20;96.70;;;;;;5462573;26;20001;-71
2024/04/08 07:42:08;;;;;;;3.88;2.80;;;17.30;96.70;;;;;;5419302;26;20014;-69
2024/04/08 07:44:40;;;;;;;5.82;3.13;;;17.40;96.70;;;;;;5480108;26;20008;-68
2024/04/08 07:47:08;;;;;;;5.65;3.35;;;17.40;96.70;;;;;;5428107;26;20002;-70
2024/04/08 07:49:37;;;;;;;5.30;3.42;;;17.50;96.70;;;;;;5444334;26;19999;-70
2024/04/08 07:52:05;;;;;;;8.32;3.35;;;17.50;96.70;;;;;;5435269;26;20006;-71
2024/04/08 07:54:34;;;;;;;7.90;3.80;;;17.60;96.70;;;;;;5434755;26;20034;-70
2024/04/08 07:57:02;;;;;;;5.97;3.47;;;17.70;96.70;;;;;;5428241;26;20863;-70
2024/04/08 07:59:32;;;;;;;7.07;3.50;;;17.70;96.70;;;;;;5431248;26;20025;-71
2024/04/08 08:02:04;;;;;;;6.97;3.97;;;17.70;96.70;;;;;;5442342;26;20129;-71
2024/04/08 08:04:51;;;;;;;6.85;3.75;;;17.70;96.70;;;;;;5434151;26;20051;-70
2024/04/08 08:07:20;;;;;;;8.32;3.90;;;17.80;96.70;;;;;;5467573;26;20013;-71
2024/04/08 08:09:48;;;;;;;10.90;4.35;;;17.90;96.70;;;;;;5449390;26;19995;-71
2024/04/08 08:12:18;;;;;;;9.07;4.28;;;18.00;96.70;;;;;;5449255;26;20037;-70
2024/04/08 08:14:46;;;;;;;9.73;4.53;;;18.10;96.70;;;;;;5417941;26;20009;-70
2024/04/08 08:17:19;;;;;;;8.25;4.05;;;18.10;96.70;;;;;;5469578;26;20020;-71
2024/04/08 08:19:48;;;;;;;9.50;4.43;;;18.20;96.70;;;;;;5438354;26;20006;-71
2024/04/08 08:22:17;;;;;;;6.90;3.83;;;18.30;96.70;;;;;;5437104;26;20000;-69
2024/04/08 08:24:47;;;;;;;8.02;4.00;;;18.30;96.70;;;;;;5423547;26;20007;-70
2024/04/08 08:27:18;;;;;;;8.95;4.38;;;18.30;96.70;;;;;;5450961;26;20009;-70
2024/04/08 08:29:51;;;;;;;10.00;4.22;;;18.40;96.70;;;;;;5449445;26;19998;-70
2024/04/08 08:32:23;;;;;;;8.18;4.07;;;18.40;96.70;;;;;;5470496;26;20014;-71
2024/04/08 08:34:53;;;;;;;10.48;4.05;;;18.50;96.70;;;;;;5463882;25;20573;-70
2024/04/08 08:37:22;;;;;;;9.13;4.07;;;18.40;96.70;;;;;;5462642;26;20008;-71
2024/04/08 08:39:50;;;;;;;7.82;4.00;;;18.40;96.70;;;;;;5455292;26;19993;-71
2024/04/08 08:42:21;;;;;;;7.35;4.25;;;18.40;96.70;;;;;;5500960;25;20004;-69
2024/04/08 08:44:54;;;;;;;9.25;4.03;;;18.40;96.70;;;;;;5507545;25;20027;-71
2024/04/08 08:47:26;;;;;;;11.38;3.97;;;18.50;96.70;;;;;;5476554;25;20023;-68
2024/04/08 08:49:57;;;;;;;9.07;4.03;;;18.50;96.70;;;;;;5479044;25;20009;-70
2024/04/08 08:52:26;;;;;;;9.63;4.30;;;18.60;96.70;;;;;;5471835;26;20009;-69
2024/04/08 08:54:56;;;;;;;14.50;5.53;;;18.60;96.70;;;;;;5455537;26;19998;-70
2024/04/08 08:57:25;;;;;;;10.82;5.60;;;18.70;96.70;;;;;;5472870;26;20001;-69
2024/04/08 08:59:54;;;;;;;11.95;6.68;;;18.80;96.70;;;;;;5495057;25;20000;-69
2024/04/08 09:02:26;;;;;;;12.70;5.95;;;18.90;96.70;;;;;;5522919;25;20001;-69
2024/04/08 09:04:55;;;;;;;14.18;5.95;;;19.10;96.70;;;;;;5522487;25;20011;-70
2024/04/08 09:07:24;;;;;;;11.80;6.05;;;19.30;96.70;;;;;;5522303;25;20007;-68
2024/04/08 09:09:54;;;;;;;8.60;5.95;;;19.50;96.70;;;;;;5508423;26;20423;-67
2024/04/08 09:12:23;;;;;;;10.63;5.78;;;19.50;96.70;;;;;;5456151;26;20009;-68
2024/04/08 09:14:52;;;;;;;9.23;6.05;;;19.70;96.70;;;;;;5458999;25;20241;-68
2024/04/08 09:17:22;;;;;;;11.68;6.35;;;19.70;96.70;;;;;;5469325;25;19996;-68
2024/04/08 09:19:53;;;;;;;9.60;6.00;;;19.70;96.70;;;;;;5489896;25;20016;-69
2024/04/08 09:22:22;;;;;;;9.65;5.03;;;19.80;96.70;;;;;;5491651;25;20001;-69
2024/04/08 09:24:52;;;;;;;14.07;5.60;;;19.90;96.70;;;;;;5522420;25;20013;-68
2024/04/08 09:27:21;;;;;;;10.13;5.75;;;20.10;96.70;;;;;;5508785;26;20435;-69
2024/04/08 09:29:50;;;;;;;10.32;5.00;;;20.20;96.70;;;;;;5459320;25;20013;-68
2024/04/08 09:32:20;;;;;;;10.68;4.35;;;20.30;96.70;;;;;;5521473;25;20016;-67
2024/04/08 09:34:48;;;;;;;11.20;4.55;;;20.30;96.70;;;;;;5553314;25;19997;-69
2024/04/08 09:37:22;;;;;;;7.28;4.47;;;20.50;96.70;;;;;;5484324;26;20102;-68
2024/04/08 09:39:54;;;;;;;9.68;4.00;;;20.70;96.70;;;;;;5484966;26;19997;-69
2024/04/08 09:42:24;;;;;;;8.73;4.18;;;20.70;96.70;;;;;;5484816;26;20001;-69
2024/04/08 09:44:55;;;;;;;12.30;4.03;;;20.80;96.70;;;;;;5503340;26;19994;-69
2024/04/08 09:47:27;;;;;;;7.10;3.83;;;20.80;96.70;;;;;;5514124;26;20903;-67
2024/04/08 09:49:58;;;;;;;7.30;3.80;;;21.10;96.70;;;;;;5517700;25;20001;-69
2024/04/08 09:52:36;;;;;;;9.43;3.88;;;21.20;96.70;;;;;;5515326;25;20004;-68
2024/04/08 09:55:08;;;;;;;5.50;3.58;;;21.20;96.70;;;;;;5476958;25;19997;-68
2024/04/08 09:57:42;;;;;;;7.68;4.22;;;21.40;96.70;;;;;;5472104;25;20082;-67
2024/04/08 10:00:14;;;;;;;9.35;4.40;;;21.40;96.70;;;;;;5515826;25;20002;-68
2024/04/08 10:02:46;;;;;;;7.90;4.00;;;21.30;96.70;;;;;;5505856;25;20084;-69
2024/04/08 10:05:19;;;;;;;9.15;4.22;;;21.40;96.70;;;;;;5488600;25;19997;-68
2024/04/08 10:07:51;;;;;;;6.82;4.70;;;21.50;96.70;;;;;;5521409;25;20441;-69
2024/04/08 10:10:21;;;;;;;5.82;3.65;;;21.60;96.70;;;;;;5511166;25;20011;-69
2024/04/08 10:12:50;;;;;;;8.57;3.63;;;21.80;96.70;;;;;;5506249;25;20434;-69
2024/04/08 10:15:21;;;;;;;10.18;4.32;;;21.80;96.70;;;;;;5491313;25;20098;-69
2024/04/08 10:17:52;;;;;;;7.90;4.65;;;21.90;96.70;;;;;;5489692;25;20435;-69
2024/04/08 10:20:21;;;;;;;8.05;3.88;;;22.00;96.70;;;;;;5515088;25;20709;-69
2024/04/08 10:22:56;;;;;;;7.68;3.97;;;22.10;96.70;;;;;;5492487;26;19998;-69
2024/04/08 10:25:34;;;;;;;5.13;3.60;;;22.10;96.70;;;;;;5457964;26;20830;-69
2024/04/08 10:28:10;;;;;;;8.57;3.83;;;22.20;96.70;;;;;;5457986;26;20093;-69
2024/04/08 10:30:40;;;;;;;6.78;3.35;;;22.50;96.70;;;;;;5517971;26;20013;-69
2024/04/08 10:33:10;;;;;;;5.95;3.53;;;22.60;96.70;;;;;;5491523;25;20410;-69
2024/04/08 10:35:39;;;;;;;8.15;3.85;;;22.80;96.70;;;;;;5475165;25;20025;-69
2024/04/08 10:38:11;;;;;;;5.43;3.50;;;22.90;96.70;;;;;;5524776;25;20007;-69
2024/04/08 10:40:41;;;;;;;5.90;3.22;;;22.80;96.70;;;;;;5524818;25;19997;-71
2024/04/08 10:43:10;;;;;;;5.78;2.80;;;23.00;96.70;;;;;;5524526;25;20013;-69
2024/04/08 10:45:39;;;;;;;6.35;3.13;;;23.20;96.70;;;;;;5493988;25;20008;-70
2024/04/08 10:48:15;;;;;;;5.03;3.10;;;23.20;96.70;;;;;;5468323;26;20004;-69
2024/04/08 10:50:48;;;;;;;5.18;3.22;;;23.40;96.70;;;;;;5496121;25;20113;-69
2024/04/08 10:53:19;;;;;;;6.22;2.78;;;23.60;96.70;;;;;;5510596;25;20022;-71
2024/04/08 10:55:48;;;;;;;5.47;2.97;;;23.70;96.70;;;;;;5508364;26;20859;-70
2024/04/08 10:58:16;;;;;;;6.95;3.35;;;23.70;96.70;;;;;;5523918;25;20009;-71
2024/04/08 11:00:45;;;;;;;7.18;3.08;;;23.70;96.70;;;;;;5493396;25;19997;-71
2024/04/08 11:03:15;;;;;;;9.27;2.88;;;23.90;96.70;;;;;;5493651;25;19996;-71
2024/04/08 11:05:44;;;;;;;6.30;2.85;;;23.90;96.70;;;;;;5489651;25;20842;-71
2024/04/08 11:08:12;;;;;;;6.57;3.00;;;24.00;96.70;;;;;;5521046;25;20872;-68
2024/04/08 11:10:46;;;;;;;4.90;2.75;;;24.20;96.70;;;;;;5457043;26;20458;-69
2024/04/08 11:13:15;;;;;;;8.77;3.30;;;24.30;96.70;;;;;;5457644;26;20001;-69
2024/04/08 11:15:48;;;;;;;5.65;2.70;;;24.30;96.70;;;;;;5457303;26;20094;-70
2024/04/08 11:18:20;;;;;;;6.53;2.72;;;24.50;96.70;;;;;;5457228;26;19993;-69
2024/04/08 11:20:50;;;;;;;8.07;2.72;;;24.70;96.70;;;;;;5489908;25;20008;-69
2024/04/08 11:23:19;;;;;;;8.52;3.03;;;24.70;96.70;;;;;;5503832;26;20006;-69
2024/04/08 11:25:53;;;;;;;6.63;2.33;;;24.60;96.70;;;;;;5457892;26;20557;-69
2024/04/08 11:28:25;;;;;;;3.92;2.50;;;24.80;96.70;;;;;;5456711;26;20371;-69
2024/04/08 11:30:54;;;;;;;3.55;2.28;;;24.90;96.70;;;;;;5456573;26;20081;-69
2024/04/08 11:33:22;;;;;;;4.22;1.98;;;24.90;96.70;;;;;;5486446;26;19997;-69
2024/04/08 11:35:51;;;;;;;8.25;2.50;;;24.90;96.70;;;;;;5492454;26;20022;-69
2024/04/08 11:38:22;;;;;;;5.88;2.83;;;24.90;96.70;;;;;;5444765;26;20009;-69
2024/04/08 11:41:06;;;;;;;6.80;2.60;;;25.00;96.70;;;;;;5446587;26;20326;-69
2024/04/08 11:43:35;;;;;;;6.10;2.38;;;24.90;96.70;;;;;;5431885;26;20009;-68
2024/04/08 11:46:04;;;;;;;4.05;2.22;;;24.80;96.70;;;;;;5414510;26;20009;-69
2024/04/08 11:48:37;;;;;;;8.23;3.00;;;24.70;96.70;;;;;;5435139;26;20001;-70
2024/04/08 11:51:06;;;;;;;7.38;2.55;;;24.70;96.70;;;;;;5445344;26;20003;-69
2024/04/08 11:53:35;;;;;;;6.13;2.35;;;24.90;96.70;;;;;;5462634;26;20010;-68
2024/04/08 11:56:08;;;;;;;6.22;2.50;;;25.00;96.70;;;;;;5462097;26;20009;-70
2024/04/08 11:58:37;;;;;;;6.38;2.35;;;25.10;96.70;;;;;;5448518;26;20006;-69
2024/04/08 12:01:05;;;;;;;5.45;2.60;;;25.10;96.70;;;;;;5415015;26;19994;-69
2024/04/08 12:03:34;;;;;;;4.70;2.28;;;25.20;96.70;;;;;;5414346;26;20009;-69
2024/04/08 12:06:04;;;;;;;4.43;2.38;;;25.50;96.70;;;;;;5443608;26;20009;-69
2024/04/08 12:08:34;;;;;;;5.45;2.13;;;25.70;96.70;;;;;;5414333;26;20007;-69
2024/04/08 12:11:09;;;;;;;4.72;2.10;;;25.70;96.70;;;;;;5414155;26;20003;-68
2024/04/08 12:13:38;;;;;;;5.63;2.50;;;25.90;96.70;;;;;;5437058;26;20540;-68
2024/04/08 12:16:12;;;;;;;8.48;2.40;;;25.90;96.70;;;;;;5469920;26;20028;-68
2024/04/08 12:18:42;;;;;;;4.22;2.28;;;26.00;96.70;;;;;;5444705;26;20007;-69
2024/04/08 12:21:11;;;;;;;5.07;2.40;;;26.20;96.70;;;;;;5444816;26;20027;-68
2024/04/08 12:23:40;;;;;;;5.07;2.47;;;26.20;96.70;;;;;;5471135;26;20017;-69
2024/04/08 12:26:13;;;;;;;6.72;2.58;;;26.20;96.70;;;;;;5424576;26;20003;-71
2024/04/08 12:28:43;;;;;;;7.07;2.58;;;26.20;96.70;;;;;;5459276;26;20009;-68
2024/04/08 12:31:12;;;;;;;5.35;2.80;;;26.30;96.70;;;;;;5410820;26;19999;-69
2024/04/08 12:33:43;;;;;;;7.68;3.10;;;26.30;96.70;;;;;;5410614;26;19998;-68
2024/04/08 12:36:12;;;;;;;5.78;2.70;;;26.40;96.70;;;;;;5421926;26;20003;-69
2024/04/08 12:38:41;;;;;;;8.35;2.90;;;26.50;96.70;;;;;;5409992;26;20021;-69
2024/04/08 12:41:13;;;;;;;6.03;2.50;;;26.50;96.70;;;;;;5401939;26;20084;-69
2024/04/08 12:43:45;;;;;;;5.28;2.47;;;26.50;96.70;;;;;;5378716;26;20437;-69
2024/04/08 12:46:22;;;;;;;4.90;2.30;;;26.40;96.70;;;;;;5406350;26;20023;-69
2024/04/08 12:48:52;;;;;;;4.72;2.20;;;26.40;96.70;;;;;;5408394;26;20003;-68
2024/04/08 12:51:22;;;;;;;6.22;2.05;;;26.30;96.70;;;;;;5379968;26;19995;-69
2024/04/08 12:53:52;;;;;;;5.25;2.08;;;26.40;96.70;;;;;;5412484;26;20740;-68
2024/04/08 12:56:25;;;;;;;3.95;1.80;;;26.50;96.70;;;;;;5420194;26;20056;-69
2024/04/08 12:58:56;;;;;;;2.63;1.45;;;26.50;96.70;;;;;;5443735;26;19995;-69
2024/04/08 13:01:25;;;;;;;2.88;1.95;;;26.50;96.70;;;;;;5407831;26;20088;-69